Time;durP1;ratioP1;P1;durP2;ratioP2;P2;SDS_P1;SDS_P2;PMS_P1;PMS_P2;Temp;Humidity;BMP_temperature;BMP_pressure;BME280_temperature;BME280_humidity;BME280_pressure;Samples;Min_cycle;Max_cycle;Signal;HPM_P1;HPM_P2
2023/05/26 00:00:12;;;;;;;8.90;8.70;;;14.50;99.90;;;;;;6263197;22;20198;-82
2023/05/26 00:02:40;;;;;;;8.80;8.60;;;14.50;99.90;;;;;;6263377;22;20198;-82
2023/05/26 00:05:09;;;;;;;9.13;8.93;;;14.40;99.90;;;;;;6263380;22;20194;-83
2023/05/26 00:07:39;;;;;;;8.93;8.73;;;14.40;99.90;;;;;;6262933;22;20264;-83
2023/05/26 00:10:08;;;;;;;8.90;8.70;;;14.40;99.90;;;;;;6268382;22;20194;-82
2023/05/26 00:12:39;;;;;;;8.70;8.50;;;14.40;99.90;;;;;;6262706;22;20238;-83
2023/05/26 00:15:09;;;;;;;8.98;8.77;;;14.30;99.90;;;;;;6265036;22;20242;-82
2023/05/26 00:17:38;;;;;;;8.80;8.60;;;14.30;99.90;;;;;;6265889;22;20257;-82
2023/05/26 00:20:10;;;;;;;8.70;8.50;;;14.30;99.90;;;;;;6263837;22;20194;-83
2023/05/26 00:22:38;;;;;;;8.70;8.50;;;14.30;99.90;;;;;;6263471;22;20273;-83
2023/05/26 00:25:07;;;;;;;8.95;8.75;;;14.30;99.90;;;;;;6263658;22;20283;-82
2023/05/26 00:27:36;;;;;;;8.80;8.60;;;14.20;99.90;;;;;;6263239;22;20194;-82
2023/05/26 00:30:06;;;;;;;8.50;8.30;;;14.20;99.90;;;;;;6262858;22;20253;-83
2023/05/26 00:32:36;;;;;;;8.75;8.55;;;14.20;99.90;;;;;;6262542;22;20243;-83
2023/05/26 00:35:04;;;;;;;8.90;8.70;;;14.10;99.90;;;;;;6262746;22;20214;-81
2023/05/26 00:37:34;;;;;;;8.73;8.52;;;14.10;99.90;;;;;;6263590;22;20202;-82
2023/05/26 00:40:03;;;;;;;9.00;8.80;;;14.10;99.90;;;;;;6263139;22;20264;-83
2023/05/26 00:42:33;;;;;;;9.30;9.00;;;14.10;99.90;;;;;;6264422;22;20233;-82
2023/05/26 00:45:02;;;;;;;8.75;8.55;;;14.00;99.90;;;;;;6267053;22;20214;-83
2023/05/26 00:47:32;;;;;;;8.70;8.50;;;14.00;99.90;;;;;;6267662;22;20226;-82
2023/05/26 00:50:02;;;;;;;8.87;8.67;;;13.80;99.90;;;;;;6265874;22;20273;-82
2023/05/26 00:52:31;;;;;;;9.00;8.80;;;13.90;99.90;;;;;;6263161;22;20202;-83
2023/05/26 00:55:00;;;;;;;8.90;8.70;;;13.90;99.90;;;;;;6263729;22;20213;-82
2023/05/26 00:57:31;;;;;;;8.93;8.73;;;13.80;99.90;;;;;;6273029;22;20182;-82
2023/05/26 01:00:01;;;;;;;9.10;8.90;;;13.90;99.90;;;;;;6269078;22;20218;-82
2023/05/26 01:02:28;;;;;;;8.80;8.60;;;13.90;99.90;;;;;;6267988;22;20202;-82
2023/05/26 01:04:58;;;;;;;8.90;8.70;;;13.80;99.90;;;;;;6264993;22;20241;-83
2023/05/26 01:07:28;;;;;;;8.50;8.30;;;13.80;99.90;;;;;;6265262;22;20221;-83
2023/05/26 01:09:57;;;;;;;8.63;8.43;;;13.70;99.90;;;;;;6264366;22;20206;-82
2023/05/26 01:12:35;;;;;;;8.53;8.33;;;13.70;99.90;;;;;;6263380;22;20194;-83
2023/05/26 01:15:13;;;;;;;9.03;8.83;;;13.60;99.90;;;;;;6262525;22;20210;-83
2023/05/26 01:17:52;;;;;;;8.73;8.53;;;13.50;99.90;;;;;;6263059;22;20193;-81
2023/05/26 01:20:29;;;;;;;8.70;8.50;;;13.40;99.90;;;;;;6263384;22;20217;-81
2023/05/26 01:23:50;;;;;;;8.70;8.50;;;13.30;99.90;;;;;;6263306;22;20194;-81
2023/05/26 01:26:49;;;;;;;9.10;8.90;;;13.40;99.90;;;;;;6263458;22;20214;-81
2023/05/26 01:29:23;;;;;;;8.97;8.77;;;13.40;99.90;;;;;;6263917;22;20202;-82
2023/05/26 01:31:58;;;;;;;9.47;9.17;;;13.30;99.90;;;;;;6263768;22;20267;-81
2023/05/26 01:34:26;;;;;;;9.40;9.10;;;13.30;99.90;;;;;;6262884;22;20189;-82
2023/05/26 01:36:54;;;;;;;9.37;9.07;;;13.30;99.90;;;;;;6268338;22;20242;-82
2023/05/26 01:39:23;;;;;;;9.47;9.17;;;13.30;99.90;;;;;;6262687;22;20229;-81
2023/05/26 01:42:00;;;;;;;9.80;9.50;;;13.30;99.90;;;;;;6263266;22;20234;-81
2023/05/26 01:44:40;;;;;;;9.50;9.20;;;13.30;99.90;;;;;;6263017;22;20202;-82
2023/05/26 01:47:12;;;;;;;9.90;9.60;;;13.30;99.90;;;;;;6263814;22;20242;-82
2023/05/26 01:49:48;;;;;;;9.40;9.10;;;13.20;99.90;;;;;;6263885;22;20216;-82
2023/05/26 01:52:19;;;;;;;9.30;9.00;;;13.10;99.90;;;;;;6263998;22;20193;-82
2023/05/26 01:54:54;;;;;;;9.50;9.20;;;13.10;99.90;;;;;;6263583;22;20190;-82
2023/05/26 01:57:25;;;;;;;9.43;9.13;;;13.10;99.90;;;;;;6263538;22;20205;-82
2023/05/26 01:59:56;;;;;;;9.70;9.40;;;13.10;99.90;;;;;;6263374;22;20198;-81
2023/05/26 02:02:24;;;;;;;9.80;9.50;;;13.00;99.90;;;;;;6262739;22;20194;-81
2023/05/26 02:04:51;;;;;;;9.97;9.67;;;13.00;99.90;;;;;;6264475;22;20210;-82
2023/05/26 02:07:23;;;;;;;10.40;10.10;;;13.00;99.90;;;;;;6275870;22;20210;-81
2023/05/26 02:09:52;;;;;;;10.13;9.83;;;12.90;99.90;;;;;;6268216;22;20209;-81
2023/05/26 02:12:22;;;;;;;10.10;9.80;;;12.90;99.90;;;;;;6266126;22;20249;-82
2023/05/26 02:15:07;;;;;;;10.10;9.80;;;12.80;99.90;;;;;;6263486;22;20245;-82
2023/05/26 02:17:40;;;;;;;9.83;9.53;;;12.70;99.90;;;;;;6261755;22;20190;-82
2023/05/26 02:20:10;;;;;;;10.40;10.10;;;12.70;99.90;;;;;;6263873;22;20194;-82
2023/05/26 02:22:41;;;;;;;10.23;9.93;;;12.70;99.90;;;;;;6263509;22;20202;-82
2023/05/26 02:25:09;;;;;;;10.57;10.27;;;12.70;99.90;;;;;;6264907;22;20206;-82
2023/05/26 02:27:38;;;;;;;10.00;9.70;;;12.60;99.90;;;;;;6273533;22;20213;-81
2023/05/26 02:30:15;;;;;;;10.03;9.73;;;12.60;99.90;;;;;;6265706;22;20202;-82
2023/05/26 02:32:44;;;;;;;10.10;9.80;;;12.50;99.90;;;;;;6262583;22;20294;-82
2023/05/26 02:35:14;;;;;;;9.83;9.53;;;12.50;99.90;;;;;;6262415;22;20241;-82
2023/05/26 02:37:44;;;;;;;9.33;9.03;;;12.50;99.90;;;;;;6264662;22;20210;-81
2023/05/26 02:40:14;;;;;;;9.70;9.40;;;12.40;99.90;;;;;;6276670;22;20194;-82
2023/05/26 02:42:43;;;;;;;9.70;9.40;;;12.40;99.90;;;;;;6270449;22;20252;-82
2023/05/26 02:45:13;;;;;;;9.40;9.10;;;12.30;99.90;;;;;;6265621;22;20232;-82
2023/05/26 02:47:44;;;;;;;9.47;9.17;;;12.30;99.90;;;;;;6265841;22;20186;-82
2023/05/26 02:50:13;;;;;;;9.40;9.10;;;12.30;99.90;;;;;;6265992;22;20206;-82
2023/05/26 02:52:41;;;;;;;9.07;8.87;;;12.20;99.90;;;;;;6265952;22;20206;-82
2023/05/26 02:55:11;;;;;;;9.37;9.07;;;12.20;99.90;;;;;;6264977;22;20242;-82
2023/05/26 02:57:41;;;;;;;10.70;10.40;;;12.10;99.90;;;;;;6266382;22;20213;-80
2023/05/26 03:00:12;;;;;;;10.50;10.20;;;12.10;99.90;;;;;;6268051;22;20225;-82
2023/05/26 03:02:40;;;;;;;10.57;10.27;;;12.10;99.90;;;;;;6265652;22;20256;-82
2023/05/26 03:05:18;;;;;;;10.73;10.43;;;12.00;99.90;;;;;;6265522;22;20210;-82
2023/05/26 03:07:47;;;;;;;10.53;10.23;;;12.00;99.90;;;;;;6264665;22;20273;-82
2023/05/26 03:10:16;;;;;;;10.37;10.07;;;11.90;99.90;;;;;;6264763;22;20194;-81
2023/05/26 03:12:46;;;;;;;10.80;10.50;;;11.90;99.90;;;;;;6264728;22;20235;-82
2023/05/26 03:15:17;;;;;;;10.60;10.30;;;11.90;99.90;;;;;;6264481;22;20692;-81
2023/05/26 03:17:45;;;;;;;10.50;10.20;;;11.90;99.90;;;;;;6264592;22;20221;-82
2023/05/26 03:20:14;;;;;;;11.00;10.70;;;11.80;99.90;;;;;;6264230;22;20198;-82
2023/05/26 03:22:42;;;;;;;10.43;10.13;;;11.80;99.90;;;;;;6267317;22;20204;-82
2023/05/26 03:25:10;;;;;;;10.87;10.57;;;11.80;99.90;;;;;;6267403;22;20284;-81
2023/05/26 03:27:41;;;;;;;10.50;10.20;;;11.70;99.90;;;;;;6265639;22;20205;-82
2023/05/26 03:30:12;;;;;;;10.80;10.50;;;11.70;99.90;;;;;;6263867;22;20217;-82
2023/05/26 03:32:43;;;;;;;10.33;10.03;;;11.70;99.90;;;;;;6262658;22;20190;-81
2023/05/26 03:35:11;;;;;;;10.60;10.30;;;11.70;99.90;;;;;;6263141;22;20685;-82
2023/05/26 03:37:39;;;;;;;10.33;10.03;;;11.70;99.90;;;;;;6262652;22;20261;-82
2023/05/26 03:40:09;;;;;;;10.40;10.10;;;11.60;99.90;;;;;;6262476;22;20198;-82
2023/05/26 03:42:39;;;;;;;10.50;10.20;;;11.70;99.90;;;;;;6262991;22;20202;-82
2023/05/26 03:45:08;;;;;;;10.50;10.20;;;11.60;99.90;;;;;;6261758;22;20222;-82
2023/05/26 03:47:35;;;;;;;10.30;10.00;;;11.70;99.90;;;;;;6262533;22;20206;-81
2023/05/26 03:50:08;;;;;;;10.50;10.20;;;11.60;99.90;;;;;;6262148;22;20222;-82
2023/05/26 03:52:36;;;;;;;10.57;10.27;;;11.60;99.90;;;;;;6261929;22;20198;-82
2023/05/26 03:55:05;;;;;;;10.83;10.53;;;11.70;99.90;;;;;;6261942;22;20210;-82
2023/05/26 03:57:35;;;;;;;10.20;9.90;;;11.70;99.90;;;;;;6262567;22;20237;-82
2023/05/26 04:00:04;;;;;;;10.27;9.97;;;11.60;99.90;;;;;;6263467;22;20207;-82
2023/05/26 04:02:33;;;;;;;10.43;10.13;;;11.60;99.90;;;;;;6267497;22;20186;-82
2023/05/26 04:05:03;;;;;;;10.23;9.93;;;11.60;99.90;;;;;;6261492;22;20198;-82
2023/05/26 04:07:33;;;;;;;10.50;10.20;;;11.60;99.90;;;;;;6261685;22;20286;-82
2023/05/26 04:10:03;;;;;;;10.90;10.60;;;11.60;99.90;;;;;;6262026;22;20186;-82
2023/05/26 04:12:30;;;;;;;10.27;9.97;;;11.60;99.90;;;;;;6262090;22;20209;-81
2023/05/26 04:15:03;;;;;;;10.47;10.17;;;11.60;99.90;;;;;;6262254;22;20256;-82
2023/05/26 04:17:32;;;;;;;10.10;9.80;;;11.50;99.90;;;;;;6261343;22;20195;-82
2023/05/26 04:20:02;;;;;;;10.60;10.30;;;11.40;99.90;;;;;;6261458;22;20242;-82
2023/05/26 04:22:33;;;;;;;10.60;10.30;;;11.40;99.90;;;;;;6260822;22;20202;-82
2023/05/26 04:25:01;;;;;;;10.17;9.87;;;11.40;99.90;;;;;;6261536;22;20214;-81
2023/05/26 04:27:30;;;;;;;9.60;9.30;;;11.50;99.90;;;;;;6261982;22;20205;-82
2023/05/26 04:30:00;;;;;;;10.00;9.70;;;11.50;99.90;;;;;;6261252;22;20312;-82
2023/05/26 04:32:29;;;;;;;9.60;9.30;;;11.50;99.90;;;;;;6262301;22;20252;-82
2023/05/26 04:34:58;;;;;;;9.73;9.43;;;11.50;99.90;;;;;;6264489;22;20197;-82
2023/05/26 04:37:26;;;;;;;9.80;9.50;;;11.60;99.90;;;;;;6263595;22;20342;-81
2023/05/26 04:39:57;;;;;;;9.73;9.43;;;11.60;99.90;;;;;;6262412;22;20198;-82
2023/05/26 04:42:26;;;;;;;9.77;9.47;;;11.60;99.90;;;;;;6263973;22;20194;-82
2023/05/26 04:44:54;;;;;;;9.83;9.53;;;11.60;99.90;;;;;;6262726;22;20254;-82
2023/05/26 04:47:24;;;;;;;9.80;9.50;;;11.70;99.90;;;;;;6263056;22;20194;-82
2023/05/26 04:49:53;;;;;;;9.87;9.57;;;11.70;99.90;;;;;;6262466;22;20190;-82
2023/05/26 04:52:22;;;;;;;9.90;9.60;;;11.70;99.90;;;;;;6262483;22;20198;-81
2023/05/26 04:54:52;;;;;;;9.73;9.43;;;11.70;99.90;;;;;;6262915;22;20191;-82
2023/05/26 05:01:40;;;;;;;10.00;9.70;;;11.90;99.90;;;;;;6160795;23;20313;-85
2023/05/26 05:04:09;;;;;;;10.00;9.70;;;12.00;99.90;;;;;;6169016;22;20296;-82
2023/05/26 05:06:37;;;;;;;10.13;9.83;;;12.20;99.90;;;;;;6259810;22;20289;-81
2023/05/26 05:09:07;;;;;;;10.00;9.70;;;12.40;99.90;;;;;;6258998;22;20186;-81
2023/05/26 05:11:38;;;;;;;10.00;9.70;;;12.60;99.90;;;;;;6260395;22;20198;-83
2023/05/26 05:14:06;;;;;;;10.23;9.93;;;12.70;99.90;;;;;;6259805;22;20197;-80
2023/05/26 05:16:35;;;;;;;10.00;9.70;;;12.80;99.90;;;;;;6259866;22;20225;-81
2023/05/26 05:19:04;;;;;;;9.77;9.47;;;12.90;99.90;;;;;;6260531;22;20194;-80
2023/05/26 05:21:44;;;;;;;10.00;9.70;;;13.00;99.90;;;;;;6259143;22;20198;-81
2023/05/26 05:24:12;;;;;;;10.03;9.73;;;13.10;99.90;;;;;;6261330;22;20198;-80
2023/05/26 05:26:41;;;;;;;9.53;9.23;;;13.20;99.90;;;;;;6259512;22;20198;-81
2023/05/26 05:29:11;;;;;;;9.53;9.23;;;13.30;99.90;;;;;;6258598;22;20206;-80
2023/05/26 05:31:41;;;;;;;9.60;9.30;;;13.30;99.90;;;;;;6258290;22;20191;-81
2023/05/26 05:34:14;;;;;;;10.00;9.70;;;13.40;99.90;;;;;;6258678;22;20194;-80
2023/05/26 05:36:49;;;;;;;10.00;9.70;;;13.60;99.90;;;;;;6258050;22;20232;-81
2023/05/26 05:39:31;;;;;;;9.90;9.60;;;13.60;99.90;;;;;;6257370;22;20205;-81
2023/05/26 05:42:06;;;;;;;9.87;9.57;;;13.70;99.90;;;;;;6258147;22;20198;-81
2023/05/26 05:44:35;;;;;;;9.87;9.57;;;13.80;99.90;;;;;;6257444;22;20277;-80
2023/05/26 05:47:10;;;;;;;9.50;9.20;;;13.90;99.90;;;;;;6261869;22;20202;-82
2023/05/26 05:52:37;;;;;;;9.63;9.32;;;14.20;99.90;;;;;;6272483;22;20198;-81
2023/05/26 05:55:07;;;;;;;9.50;9.20;;;14.30;99.90;;;;;;6273629;22;20217;-81
2023/05/26 05:57:36;;;;;;;9.70;9.40;;;14.50;99.90;;;;;;6271511;22;20213;-80
2023/05/26 06:00:07;;;;;;;9.73;9.43;;;14.70;99.90;;;;;;6262052;22;20202;-81
2023/05/26 06:02:35;;;;;;;9.60;9.30;;;14.90;99.90;;;;;;6259944;22;20199;-81
2023/05/26 06:05:05;;;;;;;9.50;9.20;;;15.10;99.90;;;;;;6258930;22;20206;-81
2023/05/26 06:07:37;;;;;;;9.65;9.35;;;15.10;99.90;;;;;;6260207;22;20307;-83
2023/05/26 06:10:13;;;;;;;9.20;8.90;;;15.10;99.90;;;;;;6258717;22;20210;-80
2023/05/26 06:12:43;;;;;;;9.20;8.90;;;15.20;99.90;;;;;;6258695;22;21096;-80
2023/05/26 06:15:14;;;;;;;9.30;9.00;;;15.30;99.90;;;;;;6259504;22;20263;-81
2023/05/26 06:17:43;;;;;;;9.40;9.10;;;15.50;99.90;;;;;;6258303;22;20271;-80
2023/05/26 06:20:12;;;;;;;9.40;9.10;;;15.60;99.90;;;;;;6259881;22;20221;-81
2023/05/26 06:25:28;;;;;;;9.00;8.80;;;15.90;99.90;;;;;;6257963;22;20206;-82
2023/05/26 06:27:58;;;;;;;9.40;9.10;;;16.00;99.90;;;;;;6259278;22;20193;-81
2023/05/26 06:30:29;;;;;;;9.40;9.10;;;16.00;99.90;;;;;;6260099;22;20194;-81
2023/05/26 06:32:57;;;;;;;9.50;9.20;;;16.10;99.90;;;;;;6259638;22;20190;-80
2023/05/26 06:35:29;;;;;;;9.07;8.88;;;16.20;99.90;;;;;;6259421;22;20194;-81
2023/05/26 06:37:58;;;;;;;9.30;9.00;;;16.30;99.90;;;;;;6259039;22;20182;-81
2023/05/26 06:40:26;;;;;;;9.38;9.07;;;16.40;99.90;;;;;;6258834;22;20198;-82
2023/05/26 06:42:57;;;;;;;8.77;8.57;;;16.30;99.90;;;;;;6261141;22;20229;-82
2023/05/26 06:45:35;;;;;;;9.30;9.00;;;16.50;99.90;;;;;;6260005;22;20208;-82
2023/05/26 06:48:12;;;;;;;8.88;8.68;;;16.50;99.90;;;;;;6278488;22;20181;-82
2023/05/26 06:50:43;;;;;;;9.20;8.90;;;16.60;99.90;;;;;;6281461;22;20173;-82
2023/05/26 06:55:57;;;;;;;9.23;8.93;;;16.60;99.90;;;;;;6258575;22;20229;-82
2023/05/26 06:58:26;;;;;;;9.18;8.90;;;16.60;99.90;;;;;;6259860;22;20269;-83
2023/05/26 07:00:58;;;;;;;9.00;8.80;;;16.70;99.90;;;;;;6262369;22;20249;-82
2023/05/26 07:03:27;;;;;;;8.98;8.77;;;16.90;99.90;;;;;;6262086;22;20198;-82
2023/05/26 07:05:56;;;;;;;8.88;8.68;;;17.00;99.90;;;;;;6263072;22;20210;-82
2023/05/26 07:11:11;;;;;;;9.00;8.80;;;17.20;99.90;;;;;;6258285;22;20205;-83
2023/05/26 07:13:40;;;;;;;9.38;9.07;;;17.20;99.90;;;;;;6260275;22;20198;-82
2023/05/26 07:16:10;;;;;;;9.48;9.18;;;17.20;99.90;;;;;;6260305;22;20202;-82
2023/05/26 07:18:39;;;;;;;9.70;9.40;;;17.30;99.90;;;;;;6270786;22;20237;-83
2023/05/26 07:21:10;;;;;;;10.35;10.05;;;17.40;99.90;;;;;;6280856;22;20234;-82
2023/05/26 07:23:43;;;;;;;10.60;10.30;;;17.50;99.90;;;;;;6272802;22;20201;-86
2023/05/26 07:26:19;;;;;;;10.85;10.55;;;17.40;99.90;;;;;;6263061;22;20213;-84
2023/05/26 07:29:04;;;;;;;10.45;10.15;;;17.70;99.90;;;;;;6261748;22;20264;-84
2023/05/26 07:31:34;;;;;;;10.40;10.10;;;17.80;99.90;;;;;;6276035;22;20202;-84
2023/05/26 07:34:06;;;;;;;10.70;10.40;;;17.90;99.90;;;;;;6270707;22;20202;-85
2023/05/26 07:39:36;;;;;;;10.35;10.05;;;17.90;99.90;;;;;;6236031;22;20246;-85
2023/05/26 07:42:06;;;;;;;10.15;9.85;;;18.10;99.90;;;;;;6262943;22;20202;-84
2023/05/26 07:44:41;;;;;;;10.10;9.80;;;18.10;99.90;;;;;;6265592;22;20206;-85
2023/05/26 07:47:15;;;;;;;9.80;9.50;;;18.30;99.90;;;;;;6263191;22;20205;-85
2023/05/26 07:49:43;;;;;;;9.63;9.32;;;18.30;99.90;;;;;;6262237;22;20281;-84
2023/05/26 07:52:12;;;;;;;9.95;9.65;;;18.50;99.90;;;;;;6262670;22;20206;-85
2023/05/26 07:54:52;;;;;;;9.60;9.30;;;18.50;99.90;;;;;;6262318;22;20257;-85
2023/05/26 07:57:29;;;;;;;9.90;9.60;;;18.50;99.90;;;;;;6258688;22;20206;-87
2023/05/26 07:59:59;;;;;;;10.10;9.80;;;18.70;99.90;;;;;;6261354;22;20194;-85
2023/05/26 08:02:28;;;;;;;9.77;9.48;;;18.80;99.90;;;;;;6262080;22;20210;-86
2023/05/26 08:04:58;;;;;;;9.68;9.38;;;18.90;99.90;;;;;;6261401;22;20256;-86
2023/05/26 08:07:26;;;;;;;9.70;9.40;;;18.90;99.90;;;;;;6261734;22;20234;-86
2023/05/26 08:10:05;;;;;;;9.70;9.40;;;19.00;99.90;;;;;;6262138;22;20209;-86
2023/05/26 08:15:35;;;;;;;9.65;9.35;;;19.40;99.90;;;;;;6259004;22;20193;-88
2023/05/26 08:18:13;;;;;;;9.60;9.30;;;19.50;99.90;;;;;;6261119;22;20260;-87
2023/05/26 08:20:44;;;;;;;9.88;9.57;;;19.40;99.90;;;;;;6261455;22;20291;-87
2023/05/26 08:23:12;;;;;;;10.02;9.73;;;19.50;99.90;;;;;;6261344;22;20229;-88
2023/05/26 08:25:52;;;;;;;10.10;9.80;;;19.60;99.90;;;;;;6260794;22;20226;-88
2023/05/26 08:34:01;;;;;;;9.82;9.52;;;20.10;99.90;;;;;;6257323;22;20205;-89
2023/05/26 08:36:29;;;;;;;9.40;9.10;;;20.40;99.90;;;;;;6261342;22;20205;-89
2023/05/26 08:38:59;;;;;;;9.90;9.60;;;20.50;99.90;;;;;;6261400;22;20245;-88
2023/05/26 08:41:46;;;;;;;9.68;9.38;;;20.40;99.90;;;;;;6261116;22;20249;-87
2023/05/26 08:44:17;;;;;;;9.77;9.48;;;20.60;99.90;;;;;;6262016;22;20201;-87
2023/05/26 08:46:48;;;;;;;9.80;9.50;;;20.70;99.90;;;;;;6261827;22;20229;-86
2023/05/26 08:49:22;;;;;;;9.80;9.50;;;20.80;99.90;;;;;;6282113;22;20242;-89
2023/05/26 08:52:10;;;;;;;9.93;9.63;;;21.00;99.90;;;;;;6281155;22;20225;-88
2023/05/26 08:54:40;;;;;;;10.15;9.85;;;21.20;99.90;;;;;;6261789;22;20187;-89
2023/05/26 08:57:17;;;;;;;10.25;9.95;;;21.30;99.90;;;;;;6261006;22;20210;-88
2023/05/26 08:59:47;;;;;;;10.20;9.90;;;21.40;99.90;;;;;;6261475;22;20205;-88
2023/05/26 09:02:27;;;;;;;10.25;9.95;;;21.50;99.90;;;;;;6260898;22;20206;-89
2023/05/26 09:05:21;;;;;;;9.85;9.55;;;21.70;99.90;;;;;;6261605;22;20209;-88
2023/05/26 09:07:52;;;;;;;10.35;10.05;;;21.70;99.90;;;;;;6261405;22;20182;-86
2023/05/26 09:10:28;;;;;;;9.32;9.02;;;21.90;99.90;;;;;;6282366;22;20191;-88
2023/05/26 09:16:37;;;;;;;8.95;8.75;;;22.00;99.90;;;;;;6270394;22;20200;-89
2023/05/26 09:19:33;;;;;;;9.40;9.10;;;22.30;99.90;;;;;;6262258;22;20201;-90
2023/05/26 09:25:18;;;;;;;9.68;9.38;;;22.50;99.90;;;;;;6200119;22;20218;-88
2023/05/26 09:27:57;;;;;;;9.57;9.27;;;22.60;99.90;;;;;;6262058;22;20241;-89
2023/05/26 09:31:19;;;;;;;10.00;9.70;;;22.70;99.90;;;;;;6262993;22;20201;-90
2023/05/26 09:34:35;;;;;;;10.02;9.73;;;22.70;99.90;;;;;;6259572;22;20249;-90
2023/05/26 09:37:43;;;;;;;9.73;9.43;;;22.90;99.90;;;;;;6259582;22;20190;-89
2023/05/26 09:40:23;;;;;;;9.40;9.10;;;22.90;99.90;;;;;;6254972;22;20202;-89
2023/05/26 09:43:22;;;;;;;9.60;9.30;;;23.10;99.90;;;;;;6262641;22;20189;-89
2023/05/26 09:46:24;;;;;;;9.60;9.30;;;23.30;99.90;;;;;;6261431;22;20202;-89
2023/05/26 09:49:04;;;;;;;9.93;9.63;;;23.50;99.90;;;;;;6262178;22;20203;-89
2023/05/26 09:51:54;;;;;;;9.52;9.23;;;23.70;99.90;;;;;;6262028;22;20201;-89
2023/05/26 09:54:59;;;;;;;9.50;9.20;;;23.90;99.90;;;;;;6262590;22;20229;-89
2023/05/26 10:00:31;;;;;;;9.55;9.25;;;23.40;99.90;;;;;;6262212;22;20202;-89
2023/05/26 10:03:14;;;;;;;9.23;8.93;;;23.80;99.90;;;;;;6262112;22;20233;-89
2023/05/26 10:08:58;;;;;;;9.52;9.23;;;24.10;99.90;;;;;;6260462;22;20202;-89
2023/05/26 10:11:45;;;;;;;9.65;9.35;;;23.70;99.90;;;;;;6279908;22;20182;-89
2023/05/26 10:14:34;;;;;;;9.60;9.30;;;23.90;99.90;;;;;;6273035;22;20201;-89
2023/05/26 10:19:50;;;;;;;9.80;9.50;;;24.20;99.90;;;;;;6259591;22;20217;-89
2023/05/26 10:22:27;;;;;;;9.40;9.10;;;23.90;99.90;;;;;;6260915;22;20183;-89
2023/05/26 10:25:06;;;;;;;9.40;9.10;;;23.90;99.90;;;;;;6260856;22;20241;-89
2023/05/26 10:27:46;;;;;;;10.10;9.80;;;24.00;99.90;;;;;;6260372;22;20209;-89
2023/05/26 10:30:23;;;;;;;10.07;9.77;;;24.10;99.90;;;;;;6259607;22;20277;-89
2023/05/26 10:32:53;;;;;;;10.20;9.90;;;24.40;99.90;;;;;;6260602;22;20194;-89
2023/05/26 10:38:18;;;;;;;10.20;9.90;;;25.20;99.90;;;;;;6257000;22;20266;-89
2023/05/26 10:40:54;;;;;;;10.60;10.30;;;25.50;99.90;;;;;;6261061;22;20205;-89
2023/05/26 10:43:32;;;;;;;10.10;9.80;;;25.60;99.90;;;;;;6268130;22;20190;-88
2023/05/26 10:46:03;;;;;;;10.18;9.88;;;25.40;99.90;;;;;;6260915;22;20210;-89
2023/05/26 10:48:41;;;;;;;10.10;9.80;;;24.50;99.90;;;;;;6261184;22;20202;-89
2023/05/26 10:51:20;;;;;;;10.30;10.00;;;24.30;99.90;;;;;;6261335;22;20240;-88
2023/05/26 10:53:49;;;;;;;10.50;10.20;;;24.30;99.90;;;;;;6260587;22;20653;-89
2023/05/26 10:56:18;;;;;;;10.45;10.15;;;24.40;99.90;;;;;;6258013;22;20214;-86
2023/05/26 10:58:56;;;;;;;10.30;10.00;;;24.90;99.90;;;;;;6263216;22;20206;-86
2023/05/26 11:01:34;;;;;;;10.02;9.73;;;25.00;99.90;;;;;;6262339;22;20194;-86
2023/05/26 11:04:12;;;;;;;10.05;9.75;;;25.00;99.90;;;;;;6261798;22;20190;-86
2023/05/26 11:06:50;;;;;;;9.93;9.63;;;24.90;99.90;;;;;;6261957;22;20195;-85
2023/05/26 11:09:21;;;;;;;10.23;9.93;;;25.10;99.90;;;;;;6262207;22;20201;-86
2023/05/26 11:11:59;;;;;;;10.50;10.20;;;25.30;99.90;;;;;;6261819;22;20244;-85
2023/05/26 11:17:14;;;;;;;9.90;9.60;;;26.10;99.90;;;;;;6263860;22;20214;-85
2023/05/26 11:19:43;;;;;;;10.00;9.70;;;26.30;99.90;;;;;;6263944;22;20224;-85
2023/05/26 11:22:13;;;;;;;10.43;10.13;;;26.30;99.90;;;;;;6263044;22;20199;-86
2023/05/26 11:24:43;;;;;;;9.95;9.65;;;26.50;99.90;;;;;;6262425;22;20202;-86
2023/05/26 11:27:12;;;;;;;10.18;9.88;;;26.70;99.90;;;;;;6263123;22;20210;-86
2023/05/26 11:29:51;;;;;;;10.25;9.95;;;27.00;99.90;;;;;;6263660;22;20210;-85
2023/05/26 11:32:19;;;;;;;10.20;9.90;;;27.20;99.90;;;;;;6264756;22;20205;-85
2023/05/26 11:34:49;;;;;;;10.23;9.93;;;26.40;99.90;;;;;;6262400;22;20225;-85
2023/05/26 11:37:19;;;;;;;10.05;9.75;;;26.40;99.90;;;;;;6262140;22;20202;-85
2023/05/26 11:39:47;;;;;;;10.20;9.90;;;26.00;99.90;;;;;;6262827;22;20194;-86
2023/05/26 11:42:17;;;;;;;10.70;10.40;;;25.80;99.90;;;;;;6262425;22;20225;-85
2023/05/26 11:44:49;;;;;;;10.50;10.20;;;25.70;99.90;;;;;;6262227;22;20242;-86
2023/05/26 11:47:25;;;;;;;10.40;10.10;;;26.00;99.90;;;;;;6261589;22;20206;-85
2023/05/26 11:49:54;;;;;;;10.45;10.15;;;26.10;99.90;;;;;;6261473;22;20201;-86
2023/05/26 11:52:23;;;;;;;10.52;10.23;;;26.30;99.90;;;;;;6261929;22;20210;-86
2023/05/26 11:54:53;;;;;;;10.45;10.15;;;26.60;99.90;;;;;;6261539;22;20285;-86
2023/05/26 11:57:33;;;;;;;10.40;10.10;;;27.10;99.90;;;;;;6261339;22;20255;-86
2023/05/26 12:00:11;;;;;;;10.48;10.18;;;27.50;99.90;;;;;;6261259;22;20272;-86
2023/05/26 12:02:40;;;;;;;10.45;10.15;;;27.40;99.90;;;;;;6261909;22;20241;-85
2023/05/26 12:08:05;;;;;;;10.27;9.98;;;27.10;99.90;;;;;;6261249;22;20220;-86
2023/05/26 12:10:33;;;;;;;10.30;10.00;;;27.30;99.90;;;;;;6261927;22;20228;-85
2023/05/26 12:13:05;;;;;;;10.00;9.70;;;27.30;99.90;;;;;;6261793;22;20198;-86
2023/05/26 12:15:37;;;;;;;10.07;9.77;;;27.60;99.90;;;;;;6260792;22;20190;-86
2023/05/26 12:18:05;;;;;;;10.10;9.80;;;28.10;99.90;;;;;;6262791;22;20259;-86
2023/05/26 12:20:35;;;;;;;10.05;9.75;;;28.40;99.90;;;;;;6263242;22;20202;-86
2023/05/26 12:23:03;;;;;;;10.35;10.05;;;28.30;99.90;;;;;;6263236;22;20206;-86
2023/05/26 12:25:32;;;;;;;10.10;9.80;;;28.30;99.90;;;;;;6262143;22;20280;-86
2023/05/26 12:28:01;;;;;;;10.20;9.90;;;27.60;99.90;;;;;;6261229;22;20206;-86
2023/05/26 12:30:33;;;;;;;10.30;10.00;;;27.40;99.90;;;;;;6261500;22;20286;-87
2023/05/26 12:33:10;;;;;;;10.35;10.05;;;27.50;99.90;;;;;;6262743;22;20225;-86
2023/05/26 12:35:38;;;;;;;10.57;10.27;;;28.10;99.90;;;;;;6261099;22;20193;-86
2023/05/26 12:38:09;;;;;;;10.32;10.02;;;28.50;99.90;;;;;;6261690;22;20275;-87
2023/05/26 12:40:37;;;;;;;10.65;10.35;;;28.60;99.90;;;;;;6261531;22;20199;-87
2023/05/26 12:43:08;;;;;;;10.85;10.55;;;28.60;99.90;;;;;;6261167;22;20201;-87
2023/05/26 12:45:36;;;;;;;11.07;10.77;;;28.80;99.90;;;;;;6262360;22;20198;-87
2023/05/26 12:48:09;;;;;;;11.20;10.90;;;29.00;99.90;;;;;;6260947;22;20194;-87
2023/05/26 12:50:36;;;;;;;11.18;10.88;;;29.20;99.90;;;;;;6262283;22;20273;-88
2023/05/26 12:53:04;;;;;;;11.00;10.70;;;29.20;99.90;;;;;;6261622;22;20221;-86
2023/05/26 12:55:34;;;;;;;10.90;10.60;;;29.10;99.90;;;;;;6262264;22;20225;-87
2023/05/26 12:58:04;;;;;;;10.85;10.55;;;29.10;99.90;;;;;;6262150;22;20198;-86
2023/05/26 13:00:33;;;;;;;10.60;10.30;;;28.80;99.90;;;;;;6263114;22;20205;-87
2023/05/26 13:03:05;;;;;;;10.20;9.90;;;28.70;99.90;;;;;;6263472;22;20202;-87
2023/05/26 13:05:33;;;;;;;10.30;10.00;;;28.70;99.90;;;;;;6263283;22;20225;-87
2023/05/26 13:08:02;;;;;;;10.18;9.88;;;28.70;99.90;;;;;;6262409;22;20203;-87
2023/05/26 13:10:31;;;;;;;10.50;10.20;;;28.90;99.90;;;;;;6263725;22;20197;-87
2023/05/26 13:13:01;;;;;;;10.45;10.15;;;28.80;99.90;;;;;;6264778;22;20246;-87
2023/05/26 13:15:30;;;;;;;10.57;10.27;;;28.90;99.90;;;;;;6263116;22;20314;-87
2023/05/26 13:17:59;;;;;;;10.70;10.40;;;29.10;99.90;;;;;;6262414;22;20194;-87
2023/05/26 13:23:25;;;;;;;10.68;10.38;;;29.70;99.90;;;;;;6269692;22;20186;-87
2023/05/26 13:25:54;;;;;;;10.77;10.48;;;29.90;99.90;;;;;;6265119;22;20214;-87
2023/05/26 13:28:24;;;;;;;10.57;10.27;;;29.90;99.90;;;;;;6262855;22;20214;-87
2023/05/26 13:30:55;;;;;;;10.70;10.40;;;29.80;99.90;;;;;;6264516;22;20195;-87
2023/05/26 13:33:23;;;;;;;10.90;10.60;;;29.30;99.90;;;;;;6265798;22;20221;-87
2023/05/26 13:36:04;;;;;;;10.65;10.35;;;29.40;99.90;;;;;;6265446;22;20268;-87
2023/05/26 13:38:32;;;;;;;10.88;10.57;;;29.50;99.90;;;;;;6263068;22;20202;-87
2023/05/26 13:43:48;;;;;;;10.63;10.32;;;30.00;99.90;;;;;;6268162;22;20244;-87
2023/05/26 13:46:16;;;;;;;11.00;10.70;;;30.50;99.90;;;;;;6269010;22;20221;-87
2023/05/26 13:48:46;;;;;;;10.90;10.60;;;30.50;99.90;;;;;;6266861;22;20229;-85
2023/05/26 13:51:17;;;;;;;11.00;10.70;;;30.40;99.90;;;;;;6272052;22;20202;-87
2023/05/26 13:53:45;;;;;;;10.68;10.38;;;30.40;99.90;;;;;;6264865;22;20190;-87
2023/05/26 13:56:16;;;;;;;10.38;10.07;;;30.50;99.90;;;;;;6266916;22;20211;-87
2023/05/26 13:58:44;;;;;;;10.18;9.88;;;30.60;99.90;;;;;;6262826;22;20183;-88
2023/05/26 14:01:12;;;;;;;10.38;10.07;;;30.50;99.90;;;;;;6266453;22;20261;-87